Time;durP1;ratioP1;P1;durP2;ratioP2;P2;SDS_P1;SDS_P2;PMS_P1;PMS_P2;Temp;Humidity;BMP_temperature;BMP_pressure;BME280_temperature;BME280_humidity;BME280_pressure;Samples;Min_cycle;Max_cycle;Signal;HPM_P1;HPM_P2
2022/07/24 00:00:39;;;;;;;;;22.00;19.00;;;;;22.40;57.75;101392.41;5056349;28;45397;-58
2022/07/24 00:03:04;;;;;;;;;16.67;15.67;;;;;22.35;57.81;101394.66;5055831;28;45363;-60
2022/07/24 00:05:30;;;;;;;;;15.33;15.33;;;;;22.29;57.93;101387.97;5054749;28;45439;-59
2022/07/24 00:07:55;;;;;;;;;19.33;16.00;;;;;22.35;58.01;101398.25;5055951;28;45482;-62
2022/07/24 00:10:21;;;;;;;;;17.00;17.00;;;;;22.31;58.43;101390.53;5055849;28;47081;-61
2022/07/24 00:12:46;;;;;;;;;19.33;17.67;;;;;22.29;58.36;101396.13;5055807;28;45319;-59
2022/07/24 00:15:12;;;;;;;;;21.00;18.00;;;;;22.28;58.41;101397.13;5056200;28;45379;-62
2022/07/24 00:17:37;;;;;;;;;16.00;16.00;;;;;22.28;58.05;101402.53;5054883;28;45271;-61
2022/07/24 00:20:05;;;;;;;;;18.67;17.33;;;;;22.23;58.28;101403.94;5055409;28;46199;-60
2022/07/24 00:22:31;;;;;;;;;16.67;16.00;;;;;22.24;58.85;101403.78;5055835;28;45391;-61
2022/07/24 00:24:56;;;;;;;;;17.00;17.00;;;;;22.21;58.48;101397.81;5056012;28;45327;-62
2022/07/24 00:27:22;;;;;;;;;18.00;17.67;;;;;22.18;58.87;101404.38;5056017;28;45395;-65
2022/07/24 00:29:47;;;;;;;;;24.67;20.00;;;;;22.11;59.20;101402.34;5055523;28;45189;-64
2022/07/24 00:32:13;;;;;;;;;17.00;17.00;;;;;22.02;59.10;101393.22;5055845;28;45243;-62
2022/07/24 00:34:38;;;;;;;;;20.33;18.67;;;;;22.12;58.74;101387.81;5055795;28;45234;-64
2022/07/24 00:37:04;;;;;;;;;21.67;17.67;;;;;22.13;58.98;101382.25;5057641;28;45435;-64
2022/07/24 00:39:30;;;;;;;;;17.33;17.33;;;;;22.14;58.61;101375.00;5058830;28;45519;-62
2022/07/24 00:41:55;;;;;;;;;17.00;16.00;;;;;22.12;58.48;101364.28;5058953;28;45398;-61
2022/07/24 00:44:20;;;;;;;;;19.33;17.33;;;;;22.11;58.71;101365.28;5057912;28;45449;-63
2022/07/24 00:46:47;;;;;;;;;19.00;19.00;;;;;22.11;58.35;101362.56;5059177;28;45531;-63
2022/07/24 00:49:14;;;;;;;;;17.67;17.00;;;;;22.05;59.13;101355.00;5059203;28;45395;-62
2022/07/24 00:51:42;;;;;;;;;20.00;18.00;;;;;22.02;58.87;101349.88;5059513;28;45289;-64
2022/07/24 00:54:10;;;;;;;;;17.00;17.00;;;;;22.03;58.95;101359.72;5059222;28;45208;-64
2022/07/24 00:56:36;;;;;;;;;21.00;18.00;;;;;22.02;59.03;101356.13;5059144;28;45355;-63
2022/07/24 00:59:03;;;;;;;;;20.67;19.33;;;;;22.02;58.77;101352.59;5058661;28;45407;-64
2022/07/24 01:01:29;;;;;;;;;18.00;17.00;;;;;22.00;59.13;101343.72;5058830;28;45420;-63
2022/07/24 01:03:54;;;;;;;;;22.33;19.67;;;;;21.96;59.31;101340.44;5058879;28;45370;-61
2022/07/24 01:06:21;;;;;;;;;18.33;16.00;;;;;21.95;59.23;101335.16;5058703;28;45249;-61
2022/07/24 01:08:46;;;;;;;;;22.67;17.00;;;;;21.95;58.94;101330.59;5058257;28;45992;-60
2022/07/24 01:11:12;;;;;;;;;18.33;17.33;;;;;21.94;59.20;101341.59;5058691;28;45404;-60
2022/07/24 01:13:39;;;;;;;;;21.33;19.00;;;;;21.91;59.42;101342.72;5058732;28;45271;-61
2022/07/24 01:16:05;;;;;;;;;20.00;15.67;;;;;21.86;59.32;101338.72;5059200;28;45446;-61
2022/07/24 01:18:31;;;;;;;;;19.67;19.33;;;;;21.79;59.58;101331.16;5058123;28;45455;-61
2022/07/24 01:20:56;;;;;;;;;14.67;14.67;;;;;21.84;59.42;101354.25;5058627;28;45405;-63
2022/07/24 01:23:23;;;;;;;;;18.00;17.33;;;;;21.82;59.46;101353.53;5058266;28;45892;-65
2022/07/24 01:25:48;;;;;;;;;24.33;19.00;;;;;21.75;59.74;101348.69;5058731;28;45480;-59
2022/07/24 01:28:14;;;;;;;;;23.00;20.33;;;;;21.82;59.57;101353.53;5058378;28;46179;-61
2022/07/24 01:30:40;;;;;;;;;17.33;16.33;;;;;21.79;59.35;101350.13;5058106;28;45339;-62
2022/07/24 01:33:05;;;;;;;;;17.33;17.33;;;;;21.83;59.69;101350.69;5058432;28;45380;-60
2022/07/24 01:35:30;;;;;;;;;20.67;18.33;;;;;21.83;59.43;101355.25;5058471;28;45477;-60
2022/07/24 01:37:56;;;;;;;;;16.00;16.00;;;;;21.82;59.68;101353.53;5057827;28;46018;-60
2022/07/24 01:40:22;;;;;;;;;20.67;19.33;;;;;21.80;59.60;101350.97;5058428;28;45277;-59
2022/07/24 01:42:48;;;;;;;;;16.00;13.33;;;;;21.78;59.55;101356.53;5058892;28;45372;-61
2022/07/24 01:45:14;;;;;;;;;20.67;17.00;;;;;21.79;59.91;101350.13;5058738;28;45466;-60
2022/07/24 01:47:41;;;;;;;;;22.33;20.67;;;;;21.83;59.36;101353.41;5057385;28;46432;-61
2022/07/24 01:50:07;;;;;;;;;20.67;17.00;;;;;21.80;59.76;101353.69;5057503;28;45346;-61
2022/07/24 01:52:33;;;;;;;;;23.00;19.67;;;;;21.79;59.37;101343.84;5056626;28;45397;-61
2022/07/24 01:54:58;;;;;;;;;22.00;19.00;;;;;21.81;59.79;101351.84;5058332;28;45878;-60
2022/07/24 01:57:23;;;;;;;;;19.33;19.00;;;;;21.83;59.66;101339.00;5057807;28;46452;-60
2022/07/24 01:59:49;;;;;;;;;18.33;18.33;;;;;21.84;59.74;101343.41;5058225;28;45328;-60
2022/07/24 02:02:14;;;;;;;;;21.00;19.33;;;;;21.79;59.75;101338.44;5057028;28;45308;-62
2022/07/24 02:04:40;;;;;;;;;23.33;18.00;;;;;21.85;59.41;101343.28;5058197;28;45374;-63
2022/07/24 02:07:05;;;;;;;;;18.00;16.67;;;;;21.85;59.67;101340.56;5057743;28;45456;-60
2022/07/24 02:09:30;;;;;;;;;16.67;16.67;;;;;21.88;59.64;101342.16;5058295;28;45215;-62
2022/07/24 02:11:56;;;;;;;;;23.33;19.33;;;;;21.89;59.19;101349.28;5058432;28;45374;-62
2022/07/24 02:14:21;;;;;;;;;21.00;19.00;;;;;21.87;59.51;101340.41;5056839;28;45454;-61
2022/07/24 02:16:47;;;;;;;;;20.00;17.00;;;;;21.81;59.60;101331.03;5058130;28;45250;-66
2022/07/24 02:19:13;;;;;;;;;18.00;18.00;;;;;21.77;59.50;101330.47;5057326;28;45322;-63
2022/07/24 02:21:38;;;;;;;;;19.67;17.00;;;;;21.74;59.74;101325.31;5057488;28;45469;-63
2022/07/24 02:24:04;;;;;;;;;17.33;17.00;;;;;21.74;59.75;101322.59;5057965;28;45614;-62
2022/07/24 02:26:29;;;;;;;;;18.00;17.00;;;;;21.71;59.58;101313.91;5057707;28;45388;-62
2022/07/24 02:28:55;;;;;;;;;19.33;17.33;;;;;21.74;59.28;101319.03;5057452;28;45342;-60
2022/07/24 02:31:20;;;;;;;;;18.00;16.67;;;;;21.72;59.43;101302.94;5039530;28;45443;-62
2022/07/24 02:33:46;;;;;;;;;18.67;17.33;;;;;21.71;59.16;101308.50;5057884;28;45505;-60
2022/07/24 02:36:11;;;;;;;;;17.33;16.67;;;;;21.68;59.51;101309.63;5056983;28;45428;-60
2022/07/24 02:38:37;;;;;;;;;17.00;15.00;;;;;21.71;59.15;101309.34;5057283;28;45367;-61
2022/07/24 02:41:03;;;;;;;;;17.33;15.67;;;;;21.72;58.83;101313.75;5057311;28;45712;-60
2022/07/24 02:43:28;;;;;;;;;14.33;13.33;;;;;21.71;58.41;101313.91;5057319;28;45489;-61
2022/07/24 02:45:53;;;;;;;;;19.33;17.67;;;;;21.64;58.28;101294.69;5056988;28;46262;-60
2022/07/24 02:48:20;;;;;;;;;16.33;16.33;;;;;21.71;58.01;101313.91;5055883;28;45389;-61
2022/07/24 02:50:45;;;;;;;;;10.00;10.00;;;;;21.62;58.43;101290.41;5056956;28;45271;-60
2022/07/24 02:53:11;;;;;;;;;21.33;17.00;;;;;21.70;58.02;101302.22;5056016;28;45262;-59
2022/07/24 02:55:36;;;;;;;;;18.33;15.33;;;;;21.54;58.47;101277.56;5056874;28;46094;-60
2022/07/24 02:58:03;;;;;;;;;15.00;13.67;;;;;21.62;58.46;101283.13;5056751;28;45718;-60
2022/07/24 03:00:29;;;;;;;;;11.67;11.67;;;;;21.69;58.27;101294.25;5056969;28;45398;-64
2022/07/24 03:02:54;;;;;;;;;15.33;14.00;;;;;21.70;58.34;101299.50;5057279;28;45512;-64
2022/07/24 03:05:20;;;;;;;;;18.00;15.00;;;;;21.63;58.01;101284.84;5056778;28;45502;-63
2022/07/24 03:07:46;;;;;;;;;17.00;15.00;;;;;21.68;58.04;101287.97;5055623;28;45437;-64
2022/07/24 03:10:13;;;;;;;;;14.00;12.50;;;;;21.68;58.19;101279.84;5055672;28;45322;-62
2022/07/24 03:12:38;;;;;;;;;18.67;17.33;;;;;21.67;58.23;101286.28;5056944;28;45471;-63
2022/07/24 03:15:04;;;;;;;;;16.33;15.33;;;;;21.65;58.24;101282.00;5056708;28;46492;-64
2022/07/24 03:17:30;;;;;;;;;12.00;12.00;;;;;21.63;58.21;101279.44;5056532;28;45237;-63
2022/07/24 03:19:55;;;;;;;;;15.67;15.33;;;;;21.61;58.12;101275.97;5056916;28;45801;-60
2022/07/24 03:22:20;;;;;;;;;19.33;18.00;;;;;21.65;58.23;101285.56;5057206;28;45175;-61
2022/07/24 03:24:46;;;;;;;;;15.67;15.67;;;;;21.64;58.58;101280.28;5056311;28;46907;-62
2022/07/24 03:27:11;;;;;;;;;16.00;16.00;;;;;21.64;58.32;101286.56;5056535;28;45165;-60
2022/07/24 03:29:37;;;;;;;;;16.00;16.00;;;;;21.58;58.30;101276.28;5056467;28;45381;-60
2022/07/24 03:32:02;;;;;;;;;17.33;17.00;;;;;21.63;58.47;101287.56;5056378;28;45299;-61
2022/07/24 03:34:28;;;;;;;;;18.33;17.00;;;;;21.63;58.52;101284.00;5054896;28;47255;-66
2022/07/24 03:36:53;;;;;;;;;13.67;13.67;;;;;21.62;58.49;101291.25;5056717;28;45199;-62
2022/07/24 03:39:19;;;;;;;;;16.67;15.00;;;;;21.61;58.34;101281.41;5056580;28;45354;-63
2022/07/24 03:41:44;;;;;;;;;21.33;15.33;;;;;21.65;58.26;101282.00;5056837;28;45610;-63
2022/07/24 03:44:09;;;;;;;;;15.33;15.00;;;;;21.65;57.70;101287.41;5056329;28;46388;-63
2022/07/24 03:46:35;;;;;;;;;15.67;15.00;;;;;21.62;58.17;101285.84;5056232;28;45965;-63
2022/07/24 03:49:00;;;;;;;;;15.33;14.33;;;;;21.63;57.68;101294.81;5056160;28;45452;-63
2022/07/24 03:51:26;;;;;;;;;16.33;15.67;;;;;21.62;57.91;101282.28;5054772;28;45407;-65
2022/07/24 03:53:53;;;;;;;;;14.33;12.33;;;;;21.62;57.32;101283.13;5056332;28;47520;-63
2022/07/24 03:56:18;;;;;;;;;18.00;15.00;;;;;21.62;57.53;101287.69;5055963;28;45303;-63
2022/07/24 03:58:44;;;;;;;;;15.00;14.00;;;;;21.60;57.94;101285.09;5055979;28;45355;-63
2022/07/24 04:01:09;;;;;;;;;15.67;15.00;;;;;21.63;57.95;101276.72;5056398;28;45439;-62
2022/07/24 04:03:36;;;;;;;;;15.00;15.00;;;;;21.60;57.87;101273.41;5054915;28;47574;-64
2022/07/24 04:06:03;;;;;;;;;15.00;15.00;;;;;21.63;57.50;101284.00;5056116;28;45669;-62
2022/07/24 04:08:28;;;;;;;;;17.67;15.00;;;;;21.61;57.89;101284.09;5056319;28;45399;-61
2022/07/24 04:10:56;;;;;;;;;15.33;14.00;;;;;21.51;57.81;101275.13;5055080;28;45325;-62
2022/07/24 04:13:23;;;;;;;;;14.67;13.00;;;;;21.55;57.92;101281.97;5059733;28;46429;-63
2022/07/24 04:15:49;;;;;;;;;18.33;15.33;;;;;21.59;57.82;101290.66;5059764;28;45327;-63
2022/07/24 04:18:14;;;;;;;;;12.00;12.00;;;;;21.60;58.08;101290.50;5059942;28;45475;-64
2022/07/24 04:20:40;;;;;;;;;16.00;15.33;;;;;21.63;58.10;101295.66;5060492;28;45255;-63
2022/07/24 04:23:05;;;;;;;;;15.00;14.33;;;;;21.63;57.73;101290.25;5059869;28;45339;-61
2022/07/24 04:25:30;;;;;;;;;16.33;13.67;;;;;21.64;58.11;101294.69;5059848;28;45418;-62
2022/07/24 04:27:56;;;;;;;;;15.00;15.00;;;;;21.60;57.93;101286.97;5060125;28;45338;-60
2022/07/24 04:30:21;;;;;;;;;16.00;14.67;;;;;21.62;57.78;101287.69;5058443;28;45782;-62
2022/07/24 04:32:47;;;;;;;;;15.33;11.67;;;;;21.62;57.88;101282.28;5059315;28;46207;-63
2022/07/24 04:35:12;;;;;;;;;16.33;15.00;;;;;21.68;58.27;101290.69;5058983;28;45436;-60
2022/07/24 04:37:37;;;;;;;;;14.67;14.67;;;;;21.70;57.88;101285.13;5059284;28;45374;-60
2022/07/24 04:40:03;;;;;;;;;17.00;15.00;;;;;21.66;57.95;101281.84;5059546;28;45223;-63
2022/07/24 04:42:29;;;;;;;;;19.00;17.67;;;;;21.67;57.72;101286.28;5040886;28;46788;-61
2022/07/24 04:44:54;;;;;;;;;14.00;14.00;;;;;21.62;58.32;101271.47;5058149;28;45308;-61
2022/07/24 04:47:20;;;;;;;;;21.33;17.67;;;;;21.71;58.05;101287.69;5058889;28;45702;-60
2022/07/24 04:49:45;;;;;;;;;16.00;16.00;;;;;21.70;57.95;101279.72;5059125;28;45245;-60
2022/07/24 04:52:10;;;;;;;;;14.67;13.33;;;;;21.72;58.03;101286.69;5058848;28;45485;-62
2022/07/24 04:54:36;;;;;;;;;14.00;14.00;;;;;21.73;58.33;101288.41;5058826;28;45425;-61
2022/07/24 04:57:01;;;;;;;;;16.00;16.00;;;;;21.76;58.11;101285.44;5059025;28;45240;-60
2022/07/24 04:59:27;;;;;;;;;12.00;11.00;;;;;21.76;57.60;101285.44;5059510;28;45596;-61
2022/07/24 05:01:52;;;;;;;;;16.33;16.33;;;;;21.76;57.85;101280.00;5058777;28;45350;-61
2022/07/24 05:04:17;;;;;;;;;14.67;14.67;;;;;21.81;58.06;101284.13;5058714;28;45477;-59
2022/07/24 05:06:46;;;;;;;;;14.00;12.00;;;;;21.78;57.75;101285.28;5058863;28;45360;-59
2022/07/24 05:09:11;;;;;;;;;13.00;13.00;;;;;21.75;57.49;101283.72;5057613;28;45360;-61
2022/07/24 05:11:37;;;;;;;;;16.33;15.67;;;;;21.72;57.38;101278.56;5058647;28;46519;-62
2022/07/24 05:14:02;;;;;;;;;15.00;15.00;;;;;21.79;57.07;101285.13;5058934;28;45421;-62
2022/07/24 05:16:27;;;;;;;;;15.00;13.67;;;;;21.75;57.31;101283.72;5059260;28;45271;-61
2022/07/24 05:18:53;;;;;;;;;17.00;16.00;;;;;21.71;57.28;101279.56;5058026;28;45599;-64
2022/07/24 05:21:18;;;;;;;;;19.00;16.33;;;;;21.78;57.31;101288.84;5057156;28;46869;-59
2022/07/24 05:23:43;;;;;;;;;15.67;13.33;;;;;21.82;57.13;101288.56;5057120;28;45414;-60
2022/07/24 05:26:09;;;;;;;;;17.00;16.33;;;;;21.83;56.97;101292.97;5058515;28;45284;-61
2022/07/24 05:28:35;;;;;;;;;17.67;15.00;;;;;21.86;57.51;101289.97;5058613;28;45196;-60
2022/07/24 05:31:00;;;;;;;;;16.33;16.33;;;;;21.89;57.63;101281.59;5058038;28;46081;-61
2022/07/24 05:33:25;;;;;;;;;19.33;15.67;;;;;21.93;57.03;101291.13;5058288;28;45384;-63
2022/07/24 05:35:51;;;;;;;;;19.00;19.00;;;;;21.91;57.32;101277.72;5073933;28;45367;-61
2022/07/24 05:38:16;;;;;;;;;13.67;13.33;;;;;21.86;57.03;101263.75;5058441;28;45500;-62
2022/07/24 05:40:42;;;;;;;;;17.67;15.33;;;;;21.97;57.08;101287.97;5058147;28;45815;-62
2022/07/24 05:43:07;;;;;;;;;18.67;16.33;;;;;22.02;57.44;101287.56;5058182;28;45409;-59
2022/07/24 05:45:33;;;;;;;;;13.33;13.33;;;;;22.04;57.10;101288.28;5056674;28;45337;-61
2022/07/24 05:47:58;;;;;;;;;19.00;16.33;;;;;22.06;57.17;101291.72;5058315;28;45323;-66
2022/07/24 05:50:24;;;;;;;;;19.00;16.67;;;;;22.07;57.05;101283.47;5057706;28;45536;-62
2022/07/24 05:52:49;;;;;;;;;19.67;17.00;;;;;22.06;56.57;101280.91;5056459;28;45437;-63
2022/07/24 05:55:15;;;;;;;;;15.67;14.67;;;;;22.09;56.81;101286.03;5058100;28;45768;-62
2022/07/24 05:57:40;;;;;;;;;15.33;14.33;;;;;22.14;56.65;101283.75;5056910;28;45328;-60
2022/07/24 06:00:06;;;;;;;;;20.33;17.33;;;;;22.15;55.95;101280.03;5057569;28;45308;-60
2022/07/24 06:02:32;;;;;;;;;18.67;16.00;;;;;22.15;56.60;101273.78;5058143;28;45796;-60
2022/07/24 06:04:57;;;;;;;;;23.67;20.00;;;;;22.18;56.44;101274.31;5058419;28;45372;-60
2022/07/24 06:07:22;;;;;;;;;19.33;16.67;;;;;22.19;56.55;101276.03;5058170;28;45561;-60
2022/07/24 06:09:48;;;;;;;;;21.33;18.00;;;;;22.25;56.82;101285.44;5057787;28;45471;-63
2022/07/24 06:12:13;;;;;;;;;12.00;12.00;;;;;22.23;56.24;101272.03;5057565;28;45322;-60
2022/07/24 06:14:39;;;;;;;;;18.67;17.00;;;;;22.18;57.10;101257.22;5058044;28;45418;-63
2022/07/24 06:17:04;;;;;;;;;22.67;20.67;;;;;22.27;55.93;101265.34;5057607;28;45303;-61
2022/07/24 06:19:29;;;;;;;;;18.33;17.00;;;;;22.32;56.15;101264.91;5057918;28;46040;-62
2022/07/24 06:21:55;;;;;;;;;24.33;19.00;;;;;22.36;56.04;101272.56;5056345;28;45260;-61
2022/07/24 06:24:20;;;;;;;;;19.33;19.33;;;;;22.34;56.78;101268.31;5057689;28;45299;-60
2022/07/24 06:26:46;;;;;;;;;19.00;17.67;;;;;22.36;56.52;101269.88;5057734;28;45571;-63
2022/07/24 06:29:11;;;;;;;;;17.33;17.33;;;;;22.36;56.76;101277.13;5056294;28;47026;-61
2022/07/24 06:31:36;;;;;;;;;17.00;17.00;;;;;22.39;57.27;101268.72;5057446;28;45399;-60
2022/07/24 06:34:02;;;;;;;;;20.00;16.67;;;;;22.28;56.99;101250.78;5057511;28;45331;-62
2022/07/24 06:36:27;;;;;;;;;17.00;17.00;;;;;22.43;57.05;101266.59;5057748;28;45245;-62
2022/07/24 06:38:53;;;;;;;;;17.67;16.00;;;;;22.43;56.58;101266.59;5057151;28;46532;-62
2022/07/24 06:41:18;;;;;;;;;20.67;17.00;;;;;22.35;57.17;101254.59;5057320;28;45432;-61
2022/07/24 06:43:44;;;;;;;;;17.33;16.00;;;;;22.47;57.28;101266.13;5057071;28;45417;-62
2022/07/24 06:46:10;;;;;;;;;20.00;20.00;;;;;22.48;56.70;101264.28;5055932;28;45255;-61
2022/07/24 06:48:35;;;;;;;;;24.33;17.33;;;;;22.48;57.28;101256.16;5056655;28;45335;-60
2022/07/24 06:51:01;;;;;;;;;20.67;17.67;;;;;22.55;57.09;101265.41;5057243;28;45292;-61
2022/07/24 06:53:27;;;;;;;;;26.00;21.00;;;;;22.59;57.43;101256.81;5057308;28;45270;-61
2022/07/24 06:55:54;;;;;;;;;18.67;17.33;;;;;22.52;56.67;101244.00;5057342;28;45518;-63
2022/07/24 06:58:20;;;;;;;;;18.00;18.00;;;;;22.62;57.07;101261.09;5055436;28;45801;-62
2022/07/24 07:00:46;;;;;;;;;22.33;18.33;;;;;22.57;57.50;101245.28;5056520;28;45401;-61
2022/07/24 07:03:12;;;;;;;;;21.00;17.67;;;;;22.62;56.92;101248.38;5056813;28;45394;-62
2022/07/24 07:05:37;;;;;;;;;15.00;13.33;;;;;22.70;56.75;101260.38;5057116;28;45500;-62
2022/07/24 07:08:03;;;;;;;;;22.67;18.67;;;;;22.73;56.85;101255.50;5056838;28;46034;-62
2022/07/24 07:10:29;;;;;;;;;22.33;19.33;;;;;22.75;56.87;101261.63;5055262;28;45444;-62
2022/07/24 07:12:54;;;;;;;;;35.33;25.67;;;;;22.71;56.87;101252.09;5056847;28;45338;-64
2022/07/24 07:15:20;;;;;;;;;23.33;22.67;;;;;22.75;56.84;101258.91;5055807;28;45454;-63
2022/07/24 07:17:45;;;;;;;;;20.67;20.67;;;;;22.76;57.29;101247.06;5056439;28;46205;-64
2022/07/24 07:20:12;;;;;;;;;19.00;19.00;;;;;22.88;56.60;101256.75;5056651;28;45337;-63
2022/07/24 07:22:38;;;;;;;;;23.00;19.67;;;;;22.84;56.48;101255.34;5055364;28;45318;-63
2022/07/24 07:25:04;;;;;;;;;19.33;17.33;;;;;22.98;57.07;101261.28;5055757;28;45240;-62
2022/07/24 07:27:30;;;;;;;;;20.00;18.00;;;;;22.96;56.92;101256.00;5056441;28;45518;-60
2022/07/24 07:29:55;;;;;;;;;19.00;17.67;;;;;23.07;56.04;101261.25;5056195;28;45335;-63
2022/07/24 07:32:21;;;;;;;;;20.00;20.00;;;;;23.10;56.22;101260.06;5056324;28;45409;-62
2022/07/24 07:34:46;;;;;;;;;19.33;19.33;;;;;23.10;57.11;101254.66;5056648;28;45654;-62
2022/07/24 07:37:12;;;;;;;;;21.67;21.00;;;;;23.21;57.52;101259.88;5056096;28;46194;-63
2022/07/24 07:39:37;;;;;;;;;20.33;20.33;;;;;23.18;56.81;101241.19;5056461;28;45235;-61
2022/07/24 07:42:03;;;;;;;;;21.67;20.67;;;;;23.28;55.89;101250.09;5055405;28;45451;-63
2022/07/24 07:44:28;;;;;;;;;21.67;21.33;;;;;23.37;55.71;101262.78;5056546;28;45497;-61
2022/07/24 07:46:54;;;;;;;;;26.00;24.67;;;;;23.37;55.65;101246.47;5055021;28;45438;-61
2022/07/24 07:49:19;;;;;;;;;26.67;21.33;;;;;23.42;55.72;101249.59;5055796;28;45271;-61
2022/07/24 07:51:47;;;;;;;;;25.00;23.67;;;;;23.49;56.12;101252.56;5056282;28;45371;-62
2022/07/24 07:54:15;;;;;;;;;22.67;22.67;;;;;23.53;56.30;101246.66;5056454;28;45544;-58
2022/07/24 07:56:41;;;;;;;;;22.33;22.33;;;;;23.62;55.50;101246.78;5054918;28;46260;-61
2022/07/24 07:59:06;;;;;;;;;25.33;21.33;;;;;23.54;55.75;101233.94;5055046;28;45403;-63
2022/07/24 08:01:31;;;;;;;;;25.00;21.00;;;;;23.68;56.25;101246.13;5056387;28;45264;-61
2022/07/24 08:03:57;;;;;;;;;24.67;21.00;;;;;23.72;55.92;101250.28;5056518;28;45586;-61
2022/07/24 08:06:22;;;;;;;;;21.33;21.33;;;;;23.78;55.51;101241.50;5055981;28;46198;-61
2022/07/24 08:08:48;;;;;;;;;27.33;22.33;;;;;23.81;55.43;101233.88;5056186;28;45402;-63
2022/07/24 08:11:13;;;;;;;;;23.75;21.00;;;;;23.90;55.50;101236.69;5055910;28;45302;-59
2022/07/24 08:13:39;;;;;;;;;24.33;21.00;;;;;23.92;54.78;101229.22;5056581;28;45877;-61
2022/07/24 08:16:05;;;;;;;;;20.67;19.67;;;;;24.04;55.12;101233.41;5056126;28;45830;-59
2022/07/24 08:18:30;;;;;;;;;20.00;19.33;;;;;24.05;54.44;101222.38;5055928;28;45366;-61
2022/07/24 08:20:56;;;;;;;;;21.33;20.00;;;;;24.19;54.59;101237.25;5055615;28;45608;-60
2022/07/24 08:23:21;;;;;;;;;18.67;17.33;;;;;24.26;54.83;101229.31;5056156;28;45219;-64
2022/07/24 08:25:47;;;;;;;;;24.33;21.00;;;;;24.28;54.23;101221.84;5055557;28;45442;-62
2022/07/24 08:28:12;;;;;;;;;22.33;21.33;;;;;24.51;53.43;101227.66;5055583;28;45237;-61
2022/07/24 08:30:37;;;;;;;;;18.75;18.75;;;;;24.70;53.34;101202.91;5055904;28;45348;-60
2022/07/24 08:33:03;;;;;;;;;21.00;19.00;;;;;25.25;52.21;101219.66;5055872;28;45307;-61
2022/07/24 08:35:29;;;;;;;;;20.75;19.00;;;;;25.73;50.31;101222.66;5055515;28;45424;-61
2022/07/24 08:37:54;;;;;;;;;20.75;17.75;;;;;26.21;50.29;101227.25;5055532;28;45449;-61
2022/07/24 08:40:21;;;;;;;;;19.50;19.50;;;;;26.63;48.43;101221.56;5055835;28;45173;-60
2022/07/24 08:42:47;;;;;;;;;19.50;18.00;;;;;27.09;48.72;101223.66;5055880;28;45605;-61
2022/07/24 08:45:13;;;;;;;;;20.00;19.00;;;;;27.50;46.89;101208.72;5055241;28;46123;-61
2022/07/24 08:47:40;;;;;;;;;21.75;15.50;;;;;27.87;45.94;101204.38;5055655;28;45351;-63
2022/07/24 08:50:06;;;;;;;;;22.00;21.50;;;;;28.33;46.07;101207.88;5055527;28;45371;-63
2022/07/24 08:52:35;;;;;;;;;22.00;18.75;;;;;28.78;44.08;101206.84;5054590;28;45272;-60
2022/07/24 08:55:01;;;;;;;;;15.25;15.25;;;;;29.11;44.09;101205.59;5055769;28;45340;-63
2022/07/24 08:57:27;;;;;;;;;22.40;19.40;;;;;29.44;43.02;101193.13;5056663;28;45380;-63
2022/07/24 08:59:52;;;;;;;;;12.75;11.25;;;;;29.75;40.52;101190.09;5059150;28;45363;-63
2022/07/24 09:02:18;;;;;;;;;15.50;11.75;;;;;30.08;40.56;101190.41;5059122;28;45421;-62
2022/07/24 09:04:46;;;;;;;;;14.00;13.25;;;;;30.38;39.03;101191.03;5058693;28;46485;-63
2022/07/24 09:07:14;;;;;;;;;13.20;13.20;;;;;30.57;39.04;101186.69;5059030;28;45849;-62
2022/07/24 09:09:41;;;;;;;;;20.60;19.00;;;;;30.90;38.71;101178.66;5059109;28;45363;-60
2022/07/24 09:12:14;;;;;;;;;14.40;12.00;;;;;31.17;37.93;101167.78;5057467;28;45425;-62
2022/07/24 09:14:45;;;;;;;;;13.60;11.00;;;;;31.45;36.90;101171.25;5058801;28;46196;-61
2022/07/24 09:17:20;;;;;;;;;9.80;9.80;;;;;31.67;36.59;101181.00;5057763;28;45322;-61
2022/07/24 09:20:12;;;;;;;;;12.80;10.80;;;;;31.88;35.65;101170.88;5057205;28;45409;-63
2022/07/24 09:22:39;;;;;;;;;11.60;10.00;;;;;32.07;35.54;101166.44;5056571;28;45515;-61
2022/07/24 09:25:21;;;;;;;;;12.00;9.20;;;;;32.37;33.02;101172.34;5058272;28;46310;-64
2022/07/24 09:27:54;;;;;;;;;10.00;10.00;;;;;32.47;31.67;101162.56;5058360;28;45464;-61
2022/07/24 09:30:32;;;;;;;;;18.60;12.80;;;;;32.59;35.21;101162.75;5057015;28;45302;-61
2022/07/24 09:33:19;;;;;;;;;14.40;11.40;;;;;32.95;34.43;101155.88;5058384;28;45307;-62
2022/07/24 09:35:50;;;;;;;;;15.40;13.40;;;;;33.07;33.17;101154.94;5057950;28;45473;-61
2022/07/24 09:38:18;;;;;;;;;8.20;8.20;;;;;33.21;33.80;101149.38;5056825;28;45355;-60
2022/07/24 09:40:47;;;;;;;;;13.00;11.60;;;;;33.27;32.88;101143.78;5058314;28;45379;-63
2022/07/24 09:43:45;;;;;;;;;13.60;12.20;;;;;33.76;32.08;101152.38;5057348;28;45358;-63
2022/07/24 09:46:12;;;;;;;;;15.40;12.40;;;;;34.08;32.57;101133.84;5035485;28;45453;-63
2022/07/24 09:48:56;;;;;;;;;11.00;10.60;;;;;34.31;32.15;101139.56;5056429;28;45434;-63
2022/07/24 09:51:21;;;;;;;;;9.80;9.80;;;;;34.40;30.51;101127.19;5058049;28;45403;-64
2022/07/24 09:53:53;;;;;;;;;11.25;10.25;;;;;34.69;30.27;101131.06;5056586;28;45614;-62
2022/07/24 09:56:20;;;;;;;;;9.00;9.00;;;;;34.96;30.13;101137.13;5057654;28;46653;-63
2022/07/24 09:58:46;;;;;;;;;11.00;10.40;;;;;35.22;29.20;101135.06;5057687;28;45318;-64
2022/07/24 10:01:13;;;;;;;;;10.00;10.00;;;;;35.27;28.86;101126.88;5058307;28;45414;-62
2022/07/24 10:03:40;;;;;;;;;12.40;10.80;;;;;35.30;28.15;101131.97;5057812;28;45471;-59
2022/07/24 10:06:09;;;;;;;;;11.00;9.00;;;;;35.32;30.48;101127.03;5057277;28;46381;-62
2022/07/24 10:08:36;;;;;;;;;13.80;10.00;;;;;35.50;28.68;101129.75;5057221;28;45311;-62
2022/07/24 10:11:02;;;;;;;;;10.00;8.00;;;;;35.61;28.23;101128.94;5057386;28;45429;-62
2022/07/24 10:13:28;;;;;;;;;9.25;9.25;;;;;35.40;29.41;101123.94;5057861;28;45631;-63
2022/07/24 10:16:13;;;;;;;;;10.25;10.00;;;;;35.35;27.77;101123.78;5057669;28;45422;-61
2022/07/24 10:18:47;;;;;;;;;10.80;10.80;;;;;35.36;28.88;101125.47;5057591;28;45417;-61
2022/07/24 10:21:34;;;;;;;;;11.80;11.00;;;;;35.16;28.00;101125.78;5057915;28;45379;-61
2022/07/24 10:24:10;;;;;;;;;14.60;13.80;;;;;35.01;28.43;101117.06;5057557;28;45366;-61
2022/07/24 10:26:38;;;;;;;;;8.60;8.60;;;;;34.99;27.75;101125.59;5057289;28;45401;-62
2022/07/24 10:29:21;;;;;;;;;9.80;9.00;;;;;34.70;28.52;101126.38;5056283;28;45274;-60
2022/07/24 10:31:50;;;;;;;;;6.00;6.00;;;;;34.32;28.22;101124.69;5057374;28;45296;-61
2022/07/24 10:34:30;;;;;;;;;7.00;7.00;;;;;33.99;29.05;101114.84;5058148;28;45801;-62
2022/07/24 10:37:20;;;;;;;;;9.00;9.00;;;;;33.58;28.42;101111.78;5057222;28;45647;-62
2022/07/24 10:39:45;;;;;;;;;10.20;9.00;;;;;33.22;29.38;101107.78;5056066;28;45331;-64
2022/07/24 10:42:11;;;;;;;;;9.75;8.75;;;;;32.79;30.45;101100.16;5057203;28;45509;-62
2022/07/24 10:44:36;;;;;;;;;10.75;8.75;;;;;32.45;30.90;101101.38;5056162;28;45770;-63
2022/07/24 10:47:08;;;;;;;;;7.00;7.00;;;;;32.12;31.46;101095.09;5055569;28;47079;-63
2022/07/24 10:49:42;;;;;;;;;9.00;9.00;;;;;31.81;31.84;101098.53;5056871;28;45244;-62
2022/07/24 10:52:24;;;;;;;;;8.80;8.80;;;;;31.50;32.01;101091.72;5057201;28;45308;-62
2022/07/24 10:55:19;;;;;;;;;9.00;9.00;;;;;31.25;31.88;101090.66;5057182;28;45488;-61
2022/07/24 10:58:11;;;;;;;;;8.80;8.80;;;;;30.96;32.14;101076.22;5050034;28;45404;-61
2022/07/24 11:00:40;;;;;;;;;8.40;7.00;;;;;30.92;32.49;101080.44;5056745;28;45411;-62
2022/07/24 11:03:21;;;;;;;;;9.00;9.00;;;;;30.81;31.80;101087.38;5057015;28;45447;-62
2022/07/24 11:06:09;;;;;;;;;7.80;6.20;;;;;30.66;32.13;101080.34;5057437;28;45374;-61
2022/07/24 11:09:01;;;;;;;;;10.80;10.60;;;;;30.58;32.10;101075.00;5056760;28;45547;-60